Time;durP1;ratioP1;P1;durP2;ratioP2;P2;SDS_P1;SDS_P2;PMS_P1;PMS_P2;Temp;Humidity;BMP_temperature;BMP_pressure;BME280_temperature;BME280_humidity;BME280_pressure;Samples;Min_cycle;Max_cycle;Signal;HPM_P1;HPM_P2
2021/01/23 04:15:19;;;;;;;8.38;3.20;;;-2.10;99.90;;;;;;4953620;29;20055;-70
2021/01/23 04:17:44;;;;;;;5.45;3.03;;;-2.10;99.90;;;;;;4954129;29;20046;-71
2021/01/23 04:20:11;;;;;;;8.07;3.45;;;-2.10;99.90;;;;;;4954327;29;20023;-71
2021/01/23 04:22:36;;;;;;;7.70;3.00;;;-2.10;99.90;;;;;;4953858;29;20031;-71
2021/01/23 04:25:03;;;;;;;7.40;3.58;;;-2.10;99.90;;;;;;4953983;29;20094;-70
2021/01/23 04:27:29;;;;;;;3.08;1.60;;;-2.10;99.90;;;;;;4954057;28;20047;-71
2021/01/23 04:29:55;;;;;;;6.38;2.78;;;-2.00;99.90;;;;;;4954051;29;20396;-71
2021/01/23 04:32:21;;;;;;;6.45;2.85;;;-2.00;99.90;;;;;;4953822;29;20027;-71
2021/01/23 04:34:47;;;;;;;10.73;3.60;;;-2.00;99.90;;;;;;4953967;29;20027;-71
2021/01/23 04:37:13;;;;;;;5.60;2.83;;;-2.00;99.90;;;;;;4953703;29;20030;-69
2021/01/23 04:39:39;;;;;;;5.70;2.80;;;-2.00;99.90;;;;;;4953685;29;20135;-69
2021/01/23 04:42:09;;;;;;;8.02;3.00;;;-2.00;99.90;;;;;;4953781;29;20106;-69
2021/01/23 04:44:36;;;;;;;5.15;2.35;;;-2.00;99.90;;;;;;4953686;29;20031;-69
2021/01/23 04:47:02;;;;;;;8.55;3.78;;;-2.00;99.90;;;;;;4953608;29;20083;-69
2021/01/23 04:49:33;;;;;;;6.93;2.67;;;-2.00;99.90;;;;;;4953799;28;20399;-69
2021/01/23 04:52:02;;;;;;;;;;;-1.90;99.90;;;;;;4954003;29;20023;-69
2021/01/23 04:54:28;;;;;;;2.95;1.77;;;-2.00;99.90;;;;;;4954015;28;19906;-69
2021/01/23 04:56:54;;;;;;;4.65;2.63;;;-1.90;99.90;;;;;;4953671;29;20090;-69
2021/01/23 04:59:20;;;;;;;10.18;3.35;;;-1.90;99.90;;;;;;4953909;29;20496;-69
2021/01/23 05:02:15;;;;;;;6.72;3.28;;;-1.90;99.90;;;;;;4953321;29;20475;-69
2021/01/23 05:04:45;;;;;;;6.30;2.08;;;-1.90;99.90;;;;;;4953501;28;20495;-69
2021/01/23 05:07:11;;;;;;;3.22;2.05;;;-1.90;99.90;;;;;;4953480;29;20078;-69
2021/01/23 05:09:38;;;;;;;6.38;2.80;;;-1.90;99.90;;;;;;4954576;28;20062;-69
2021/01/23 05:12:04;;;;;;;5.50;3.13;;;-1.90;99.90;;;;;;4957476;29;20423;-69
2021/01/23 05:14:29;;;;;;;4.78;2.97;;;-1.90;99.90;;;;;;4957186;29;20051;-70
2021/01/23 05:17:05;;;;;;;7.38;3.03;;;-1.80;99.90;;;;;;4956854;29;20054;-69
2021/01/23 05:19:44;;;;;;;6.97;3.33;;;-1.80;99.90;;;;;;4957406;28;20035;-69
2021/01/23 05:22:09;;;;;;;9.07;2.60;;;-1.80;99.90;;;;;;4957018;29;20023;-70
2021/01/23 05:24:53;;;;;;;5.85;2.80;;;-1.80;99.90;;;;;;4957314;29;20030;-69
2021/01/23 05:27:19;;;;;;;5.03;2.65;;;-1.80;99.90;;;;;;4956701;29;20392;-70
2021/01/23 05:29:59;;;;;;;6.13;2.95;;;-1.80;99.90;;;;;;4956722;29;20031;-73
2021/01/23 05:32:25;;;;;;;4.67;2.93;;;-1.70;99.90;;;;;;4956802;29;20027;-76
2021/01/23 05:34:51;;;;;;;7.70;3.25;;;-1.70;99.90;;;;;;4956967;29;20094;-76
2021/01/23 05:37:34;;;;;;;4.57;2.40;;;-1.70;99.90;;;;;;4956645;29;20035;-71
2021/01/23 05:40:00;;;;;;;3.20;1.92;;;-1.70;99.90;;;;;;4956951;29;20451;-71
2021/01/23 05:42:26;;;;;;;4.93;1.98;;;-1.70;99.90;;;;;;4956693;29;20023;-70
2021/01/23 05:45:21;;;;;;;2.15;1.23;;;-1.60;99.90;;;;;;4956831;29;20023;-68
2021/01/23 05:47:47;;;;;;;4.07;2.38;;;-1.00;99.90;;;;;;4943817;28;20398;-71
2021/01/23 05:50:13;;;;;;;4.55;2.33;;;-0.40;99.90;;;;;;4956526;29;20110;-70
2021/01/23 05:52:38;;;;;;;4.65;2.67;;;-0.80;99.90;;;;;;4956315;29;20038;-71
2021/01/23 05:55:05;;;;;;;4.93;1.98;;;-1.00;99.90;;;;;;4956449;29;20031;-69
2021/01/23 05:57:33;;;;;;;2.95;1.83;;;-1.20;99.90;;;;;;4956492;29;20035;-71
2021/01/23 05:59:59;;;;;;;3.80;1.83;;;-1.20;99.90;;;;;;4956184;29;20031;-69
2021/01/23 06:02:26;;;;;;;2.72;1.98;;;-1.40;99.90;;;;;;4956156;29;20081;-74
2021/01/23 06:04:53;;;;;;;7.50;2.58;;;-1.50;99.90;;;;;;4955972;29;20027;-71
2021/01/23 06:07:51;;;;;;;3.58;2.28;;;-1.60;99.90;;;;;;4955792;28;20464;-70
2021/01/23 06:10:23;;;;;;;1.70;1.58;;;-1.60;99.90;;;;;;4922728;28;20028;-71
2021/01/23 06:12:55;;;;;;;5.50;2.40;;;-1.60;99.90;;;;;;4955369;29;20031;-71
2021/01/23 06:15:35;;;;;;;3.95;2.45;;;-1.70;99.90;;;;;;4955431;29;20125;-70
2021/01/23 06:18:04;;;;;;;4.82;2.53;;;-1.70;99.90;;;;;;4955519;29;20098;-71
2021/01/23 06:20:42;;;;;;;1.63;1.50;;;-1.70;99.90;;;;;;4955677;29;20035;-69
2021/01/23 06:23:12;;;;;;;1.05;0.95;;;-1.70;99.90;;;;;;4954944;28;20082;-71
2021/01/23 06:25:49;;;;;;;4.32;2.42;;;-1.70;99.90;;;;;;4963394;29;20026;-73
2021/01/23 06:28:21;;;;;;;3.42;1.83;;;-1.80;99.90;;;;;;4955410;29;20119;-74
2021/01/23 06:30:50;;;;;;;3.42;2.25;;;-1.80;99.90;;;;;;4955003;29;20102;-73
2021/01/23 06:33:22;;;;;;;4.68;2.30;;;-1.60;99.90;;;;;;4955445;28;20023;-73
2021/01/23 06:36:06;;;;;;;3.42;2.03;;;-1.80;99.90;;;;;;4955303;29;20090;-73
2021/01/23 06:38:33;;;;;;;3.08;1.75;;;-2.30;99.90;;;;;;4955091;28;20031;-73
2021/01/23 06:41:24;;;;;;;2.15;1.52;;;-2.60;99.90;;;;;;4954933;29;20442;-74
2021/01/23 06:44:08;;;;;;;3.95;2.25;;;-3.00;99.90;;;;;;4954769;28;20023;-74
2021/01/23 06:46:35;;;;;;;4.78;2.10;;;-3.30;99.90;;;;;;4955125;28;20086;-74
2021/01/23 06:49:01;;;;;;;6.60;2.45;;;-3.50;99.90;;;;;;4955257;29;20027;-74
2021/01/23 06:51:27;;;;;;;2.35;1.50;;;-3.70;99.90;;;;;;4955572;29;20028;-74
2021/01/23 06:54:13;;;;;;;7.57;2.22;;;-3.80;99.90;;;;;;4955274;29;20032;-74
2021/01/23 06:56:52;;;;;;;5.53;2.55;;;-4.00;99.90;;;;;;4954838;29;20029;-74
2021/01/23 06:59:35;;;;;;;2.28;1.92;;;-4.10;99.90;;;;;;4955203;29;20066;-70
2021/01/23 07:02:13;;;;;;;1.90;1.80;;;-4.20;99.90;;;;;;4954968;29;20027;-72
2021/01/23 07:04:49;;;;;;;6.70;2.33;;;-4.40;99.90;;;;;;4955056;28;20391;-73
2021/01/23 07:07:17;;;;;;;4.22;2.40;;;-4.70;99.90;;;;;;4954510;29;20539;-72
2021/01/23 07:09:52;;;;;;;3.72;2.13;;;-4.80;99.90;;;;;;4954817;28;20027;-72
2021/01/23 07:12:33;;;;;;;5.25;2.35;;;-5.00;99.90;;;;;;4954529;29;20027;-72
2021/01/23 07:15:00;;;;;;;2.88;2.17;;;-5.20;99.90;;;;;;4954348;29;20075;-72
2021/01/23 07:17:25;;;;;;;7.82;2.20;;;-5.30;99.90;;;;;;4954526;29;20557;-77
2021/01/23 07:19:51;;;;;;;3.13;2.22;;;-5.30;99.90;;;;;;4954935;29;20114;-73
2021/01/23 07:22:18;;;;;;;3.55;2.03;;;-5.30;99.90;;;;;;4954697;29;20023;-73
2021/01/23 07:24:45;;;;;;;5.28;2.90;;;-5.40;99.90;;;;;;4954949;29;20035;-73
2021/01/23 07:27:11;;;;;;;3.17;2.22;;;-5.50;99.90;;;;;;4954799;29;20038;-73
2021/01/23 07:29:36;;;;;;;2.45;2.08;;;-5.60;99.90;;;;;;4954943;29;20027;-72
2021/01/23 07:32:02;;;;;;;3.05;1.95;;;-5.70;99.90;;;;;;4954731;29;20035;-73
2021/01/23 07:34:28;;;;;;;7.15;1.15;;;-5.80;99.90;;;;;;4953840;28;20030;-73
2021/01/23 07:36:53;;;;;;;7.28;2.13;;;-5.90;99.90;;;;;;4954574;29;20038;-73
2021/01/23 07:39:20;;;;;;;7.65;2.42;;;-6.10;99.90;;;;;;4954785;29;20023;-73
2021/01/23 07:41:56;;;;;;;5.50;1.83;;;-6.20;99.90;;;;;;4954320;28;20027;-78
2021/01/23 07:44:25;;;;;;;9.73;1.85;;;-6.20;99.90;;;;;;4954210;29;20042;-75
2021/01/23 07:46:52;;;;;;;1.92;1.55;;;-6.20;99.90;;;;;;4954190;28;20114;-71
2021/01/23 07:49:25;;;;;;;2.58;1.98;;;-6.30;99.90;;;;;;4954659;29;20057;-77
2021/01/23 07:51:52;;;;;;;4.80;2.00;;;-6.20;99.90;;;;;;4954413;29;20054;-73
2021/01/23 07:54:18;;;;;;;3.97;1.50;;;-6.10;99.90;;;;;;4954325;28;20386;-72
2021/01/23 07:56:56;;;;;;;2.28;1.85;;;-6.20;99.90;;;;;;4954167;29;20027;-75
2021/01/23 07:59:41;;;;;;;2.53;1.77;;;-6.20;99.90;;;;;;4954253;28;20480;-74
2021/01/23 08:02:07;;;;;;;2.10;1.52;;;-6.10;99.90;;;;;;4954146;29;20031;-75
2021/01/23 08:04:34;;;;;;;2.85;1.70;;;-6.30;99.90;;;;;;4954135;29;20090;-74
2021/01/23 08:07:24;;;;;;;6.10;1.88;;;-6.00;99.90;;;;;;4953770;28;20028;-74
2021/01/23 08:10:11;;;;;;;2.15;1.83;;;-6.20;99.90;;;;;;4954268;28;20024;-75
2021/01/23 08:12:38;;;;;;;3.47;1.63;;;-6.40;99.90;;;;;;4954089;28;20094;-70
2021/01/23 08:15:07;;;;;;;3.78;1.92;;;-6.50;99.90;;;;;;4953761;29;20499;-71
2021/01/23 08:17:51;;;;;;;4.25;2.03;;;-6.50;99.90;;;;;;4953620;28;20058;-86
2021/01/23 08:20:28;;;;;;;1.20;1.15;;;-6.50;99.90;;;;;;4954074;29;20065;-78
2021/01/23 08:23:11;;;;;;;5.30;2.03;;;-6.60;99.90;;;;;;4953809;29;20035;-78
2021/01/23 08:25:38;;;;;;;1.75;1.52;;;-6.60;99.90;;;;;;4954328;29;20086;-74
2021/01/23 08:28:07;;;;;;;3.80;2.15;;;-6.60;99.90;;;;;;4953634;29;20039;-73
2021/01/23 08:30:33;;;;;;;3.55;2.10;;;-6.70;99.90;;;;;;4954209;29;20471;-80
2021/01/23 08:33:02;;;;;;;2.22;1.90;;;-6.60;99.90;;;;;;4954243;28;20035;-76
2021/01/23 08:35:28;;;;;;;1.65;1.52;;;-6.60;99.90;;;;;;4952253;29;20035;-75
2021/01/23 08:37:54;;;;;;;4.13;2.15;;;-6.60;99.90;;;;;;4952271;28;20035;-79
2021/01/23 08:40:23;;;;;;;1.95;1.73;;;-6.70;99.90;;;;;;4953438;29;20030;-74
2021/01/23 08:42:50;;;;;;;1.90;1.80;;;-5.90;99.90;;;;;;4953765;29;20031;-76
2021/01/23 08:45:18;;;;;;;1.77;1.55;;;-5.90;99.90;;;;;;4955578;28;20269;-74
2021/01/23 08:47:44;;;;;;;3.97;2.20;;;-5.90;99.90;;;;;;4957698;29;20037;-74
2021/01/23 08:50:10;;;;;;;4.60;2.47;;;-6.30;99.90;;;;;;4957554;29;20098;-75
2021/01/23 08:52:36;;;;;;;6.68;2.17;;;-6.40;99.90;;;;;;4956892;29;20121;-74
2021/01/23 08:55:04;;;;;;;3.33;1.92;;;-6.60;99.90;;;;;;4956420;29;20038;-74
2021/01/23 08:57:30;;;;;;;3.35;1.88;;;-6.70;99.90;;;;;;4955788;29;20038;-74
2021/01/23 08:59:55;;;;;;;6.40;2.47;;;-6.80;99.90;;;;;;4957099;29;20118;-74
2021/01/23 09:02:21;;;;;;;3.38;2.38;;;-6.80;99.90;;;;;;4956856;29;20027;-74
2021/01/23 09:04:47;;;;;;;5.78;3.00;;;-6.90;99.90;;;;;;4957075;29;20020;-74
2021/01/23 09:07:13;;;;;;;5.10;2.65;;;-7.00;99.90;;;;;;4956761;29;20472;-74
2021/01/23 09:09:39;;;;;;;1.77;1.63;;;-7.00;99.90;;;;;;4956750;29;20039;-74
2021/01/23 09:12:07;;;;;;;2.65;2.10;;;-7.10;99.90;;;;;;4956764;29;20098;-75
2021/01/23 09:14:33;;;;;;;2.80;2.13;;;-7.20;99.90;;;;;;4956929;29;20051;-75
2021/01/23 09:16:58;;;;;;;3.03;1.98;;;-7.20;99.90;;;;;;4956903;29;20086;-75
2021/01/23 09:19:24;;;;;;;1.75;1.65;;;-7.40;99.90;;;;;;4956609;28;20066;-75
2021/01/23 09:21:50;;;;;;;3.15;1.75;;;-7.40;99.90;;;;;;4957788;29;20027;-75
2021/01/23 09:24:17;;;;;;;1.20;1.20;;;-7.50;99.90;;;;;;4956934;29;20530;-75
2021/01/23 09:26:44;;;;;;;5.72;1.98;;;-7.50;99.90;;;;;;4956354;29;20027;-74
2021/01/23 09:29:10;;;;;;;6.00;2.00;;;-7.60;99.90;;;;;;4956874;29;20046;-77
2021/01/23 09:31:36;;;;;;;2.75;1.85;;;-7.70;99.90;;;;;;4956743;29;20029;-75
2021/01/23 09:34:02;;;;;;;1.70;1.60;;;-7.70;99.90;;;;;;4956652;29;20027;-73
2021/01/23 09:36:28;;;;;;;2.72;1.88;;;-7.70;99.90;;;;;;4956656;28;20019;-73
2021/01/23 09:38:55;;;;;;;6.65;2.50;;;-7.70;99.90;;;;;;4956820;29;20444;-79
2021/01/23 09:41:21;;;;;;;4.38;2.10;;;-7.70;99.90;;;;;;4956713;29;20035;-74
2021/01/23 09:43:47;;;;;;;3.45;1.67;;;-7.70;99.90;;;;;;4956825;29;20428;-74
2021/01/23 09:46:12;;;;;;;4.35;2.40;;;-7.70;99.90;;;;;;4956477;29;20030;-75
2021/01/23 09:48:39;;;;;;;1.48;1.30;;;-7.70;99.90;;;;;;4956694;29;20122;-76
2021/01/23 09:51:04;;;;;;;1.48;1.38;;;-7.70;99.90;;;;;;4956768;29;20097;-75
2021/01/23 09:53:30;;;;;;;8.48;2.88;;;-7.80;99.90;;;;;;4956436;29;20031;-75
2021/01/23 09:55:56;;;;;;;2.28;1.80;;;-7.80;99.90;;;;;;4955848;28;20031;-75
2021/01/23 09:58:22;;;;;;;3.15;2.20;;;-7.80;99.90;;;;;;4956099;29;20150;-75
2021/01/23 10:00:48;;;;;;;2.38;1.88;;;-7.80;99.90;;;;;;4956408;29;20023;-75
2021/01/23 10:03:16;;;;;;;7.07;1.92;;;-7.80;99.90;;;;;;4955692;29;20407;-75
2021/01/23 10:05:43;;;;;;;1.50;1.40;;;-7.30;99.90;;;;;;4953220;29;20383;-75
2021/01/23 10:08:08;;;;;;;3.30;2.47;;;-7.30;99.90;;;;;;4955356;28;20419;-75
2021/01/23 10:10:34;;;;;;;3.58;1.90;;;-7.50;99.90;;;;;;4955963;28;20023;-75
2021/01/23 10:13:00;;;;;;;3.72;2.30;;;-7.70;99.90;;;;;;4955904;29;20483;-76
2021/01/23 10:15:26;;;;;;;10.10;2.65;;;-7.30;99.90;;;;;;4959139;29;20075;-75
2021/01/23 10:17:51;;;;;;;4.57;2.28;;;-7.40;99.90;;;;;;4964962;29;20075;-78
2021/01/23 10:20:17;;;;;;;8.45;2.10;;;-7.60;99.90;;;;;;4955496;29;20451;-79
2021/01/23 10:22:43;;;;;;;1.95;1.70;;;-7.70;99.90;;;;;;4955385;29;20058;-79
2021/01/23 10:25:09;;;;;;;5.57;2.83;;;-7.80;99.90;;;;;;4955291;29;20054;-79
2021/01/23 10:27:35;;;;;;;1.92;1.35;;;-7.90;99.90;;;;;;4955200;29;20054;-78
2021/01/23 10:30:03;;;;;;;3.72;1.95;;;-7.90;99.90;;;;;;4955248;28;20023;-78
2021/01/23 10:32:29;;;;;;;2.22;1.80;;;-7.90;99.90;;;;;;4955198;29;20031;-77
2021/01/23 10:34:54;;;;;;;5.70;2.67;;;-7.90;99.90;;;;;;4955128;29;20066;-78
2021/01/23 10:37:20;;;;;;;4.75;2.25;;;-8.00;99.90;;;;;;4955199;29;20571;-77
2021/01/23 10:39:46;;;;;;;2.83;1.92;;;-8.00;99.90;;;;;;4955157;29;20525;-77
2021/01/23 10:42:12;;;;;;;4.32;1.70;;;-8.00;99.90;;;;;;4954921;29;20110;-75
2021/01/23 10:44:40;;;;;;;1.85;1.70;;;-8.00;99.90;;;;;;4955176;29;20106;-75
2021/01/23 10:47:07;;;;;;;9.07;2.72;;;-8.00;99.90;;;;;;4952265;29;20118;-74
2021/01/23 10:49:33;;;;;;;2.15;1.92;;;-8.10;99.90;;;;;;4954484;29;20058;-75
2021/01/23 10:51:59;;;;;;;1.60;1.50;;;-8.20;99.90;;;;;;4954450;28;20075;-75
2021/01/23 10:54:26;;;;;;;4.13;2.00;;;-8.10;99.90;;;;;;4955506;29;20089;-75
2021/01/23 10:56:51;;;;;;;4.45;2.05;;;-8.20;99.90;;;;;;4955208;28;20111;-74
2021/01/23 10:59:17;;;;;;;6.72;3.15;;;-8.10;99.90;;;;;;4955140;28;20110;-74
2021/01/23 11:01:43;;;;;;;1.25;1.20;;;-8.20;99.90;;;;;;4955189;28;20608;-76
2021/01/23 11:04:09;;;;;;;4.18;1.88;;;-8.20;99.90;;;;;;4955043;28;20027;-75
2021/01/23 11:06:34;;;;;;;2.03;1.83;;;-8.20;99.90;;;;;;4955131;29;20042;-75
2021/01/23 11:09:00;;;;;;;3.75;2.13;;;-8.30;99.90;;;;;;4954710;28;20110;-75
2021/01/23 11:11:26;;;;;;;2.72;2.00;;;-8.30;99.90;;;;;;4955201;29;20094;-74
2021/01/23 11:13:52;;;;;;;5.60;2.75;;;-8.30;99.90;;;;;;4954499;29;20364;-74
2021/01/23 11:16:18;;;;;;;3.38;2.28;;;-8.30;99.90;;;;;;4954843;29;20086;-74
2021/01/23 11:18:44;;;;;;;4.28;1.83;;;-8.30;99.90;;;;;;4954743;29;20035;-74
2021/01/23 11:21:09;;;;;;;3.53;2.17;;;-8.40;99.90;;;;;;4954656;29;20031;-74
2021/01/23 11:23:35;;;;;;;3.95;1.88;;;-8.50;99.90;;;;;;4954291;29;20031;-74
2021/01/23 11:26:01;;;;;;;1.67;1.58;;;-8.40;99.90;;;;;;4954198;29;20023;-74
2021/01/23 11:28:26;;;;;;;5.63;2.40;;;-8.40;99.90;;;;;;4954152;29;20031;-74
2021/01/23 11:30:53;;;;;;;8.57;2.67;;;-8.50;99.90;;;;;;4954190;29;20476;-74
2021/01/23 11:33:23;;;;;;;3.08;1.85;;;-8.50;99.90;;;;;;4953898;29;20491;-74
2021/01/23 11:35:49;;;;;;;2.60;1.85;;;-8.50;99.90;;;;;;4954356;29;20094;-75
2021/01/23 11:38:15;;;;;;;3.83;1.90;;;-8.60;99.90;;;;;;4953743;29;20027;-78
2021/01/23 11:40:41;;;;;;;1.20;1.20;;;-8.50;99.90;;;;;;4954004;29;20022;-76
2021/01/23 11:43:08;;;;;;;1.38;1.27;;;-8.50;99.90;;;;;;4953841;29;20043;-77
2021/01/23 11:45:34;;;;;;;4.63;2.40;;;-8.50;99.90;;;;;;4953891;29;20019;-82
2021/01/23 11:48:00;;;;;;;3.13;1.95;;;-8.60;99.90;;;;;;4953934;29;20049;-76
2021/01/23 11:50:25;;;;;;;2.92;2.17;;;-8.50;99.90;;;;;;4954097;29;20043;-73
2021/01/23 11:52:51;;;;;;;2.60;1.40;;;-8.60;99.90;;;;;;4954250;29;20031;-74
2021/01/23 11:55:17;;;;;;;2.60;2.03;;;-8.60;99.90;;;;;;4953792;29;20023;-74
2021/01/23 11:57:43;;;;;;;2.17;1.98;;;-8.60;99.90;;;;;;4953767;29;20027;-75
2021/01/23 12:00:09;;;;;;;1.60;1.42;;;-8.60;99.90;;;;;;4953320;29;20447;-75
2021/01/23 12:02:35;;;;;;;2.80;1.90;;;-8.70;99.90;;;;;;4953379;29;20031;-75
2021/01/23 12:05:00;;;;;;;5.30;2.05;;;-8.70;99.90;;;;;;4953545;29;20070;-75
2021/01/23 12:07:26;;;;;;;3.15;1.63;;;-8.70;99.90;;;;;;4953793;29;20130;-73
2021/01/23 12:09:53;;;;;;;2.92;1.90;;;-8.80;99.90;;;;;;4953211;28;20065;-74
2021/01/23 12:12:18;;;;;;;1.95;1.55;;;-8.80;99.90;;;;;;4953622;29;20412;-74
2021/01/23 12:14:44;;;;;;;9.07;2.35;;;-8.80;99.90;;;;;;4953423;29;20047;-74
2021/01/23 12:17:10;;;;;;;2.53;1.65;;;-8.80;99.90;;;;;;4952820;29;20023;-75
2021/01/23 12:19:37;;;;;;;2.63;2.15;;;-8.80;99.90;;;;;;4952873;29;20051;-74
2021/01/23 12:22:07;;;;;;;1.83;1.60;;;-8.80;99.90;;;;;;4950744;29;20360;-74
2021/01/23 12:24:33;;;;;;;2.17;1.70;;;-8.80;99.90;;;;;;4952063;28;20040;-73
2021/01/23 12:27:01;;;;;;;5.82;2.25;;;-8.80;99.90;;;;;;4952182;29;20031;-76
2021/01/23 12:29:30;;;;;;;4.30;2.50;;;-8.90;99.90;;;;;;4953426;29;20550;-74
2021/01/23 12:31:57;;;;;;;3.83;1.77;;;-8.90;99.90;;;;;;4954108;29;20058;-73
2021/01/23 12:34:26;;;;;;;8.15;2.00;;;-8.80;99.90;;;;;;4952761;28;20098;-73
2021/01/23 12:36:52;;;;;;;1.50;1.40;;;-8.90;99.90;;;;;;4953824;29;20023;-70
2021/01/23 12:39:18;;;;;;;2.15;1.63;;;-8.80;99.90;;;;;;4953638;29;20383;-72
2021/01/23 12:41:44;;;;;;;1.98;1.83;;;-8.80;99.90;;;;;;4952293;29;20027;-72
2021/01/23 12:44:10;;;;;;;3.78;1.92;;;-8.80;99.90;;;;;;4950425;29;20038;-72
2021/01/23 12:46:35;;;;;;;2.05;1.70;;;-8.70;99.90;;;;;;4952057;29;20139;-72
2021/01/23 12:49:01;;;;;;;5.60;2.28;;;-8.70;99.90;;;;;;4953152;28;20039;-73
2021/01/23 12:51:27;;;;;;;2.53;1.75;;;-8.60;99.90;;;;;;4952634;28;20034;-72
2021/01/23 12:53:53;;;;;;;3.92;1.80;;;-8.60;99.90;;;;;;4953655;28;20058;-72
2021/01/23 12:56:19;;;;;;;8.10;2.40;;;-7.60;99.90;;;;;;4953469;29;20440;-73
2021/01/23 12:58:45;;;;;;;2.92;1.98;;;-7.90;99.90;;;;;;4953532;29;20027;-73
2021/01/23 13:01:10;;;;;;;5.40;2.25;;;-8.10;99.90;;;;;;4953492;29;20031;-74
2021/01/23 13:03:37;;;;;;;5.18;2.47;;;-8.30;99.90;;;;;;4953733;29;20054;-74
2021/01/23 13:06:03;;;;;;;5.25;1.75;;;-8.50;99.90;;;;;;4953416;29;20527;-74
2021/01/23 13:08:28;;;;;;;7.60;3.00;;;-8.50;99.90;;;;;;4953471;29;20126;-73
2021/01/23 13:10:54;;;;;;;8.60;2.53;;;-8.30;99.90;;;;;;4953548;29;20034;-72
2021/01/23 13:13:21;;;;;;;4.75;1.92;;;-8.30;99.90;;;;;;4953561;29;20031;-74
2021/01/23 13:15:46;;;;;;;2.42;1.83;;;-8.40;99.90;;;;;;4954105;29;20051;-74
2021/01/23 13:18:12;;;;;;;2.47;1.50;;;-8.50;99.90;;;;;;4953211;29;20033;-74
2021/01/23 13:20:38;;;;;;;3.80;1.92;;;-8.40;99.90;;;;;;4953746;29;20035;-73
2021/01/23 13:23:03;;;;;;;1.77;1.60;;;-8.40;99.90;;;;;;4953329;29;20436;-76
2021/01/23 13:25:29;;;;;;;3.70;2.10;;;-8.50;99.90;;;;;;4953743;29;20038;-71
2021/01/23 13:27:55;;;;;;;5.68;2.92;;;-8.50;99.90;;;;;;4953267;29;20459;-74
2021/01/23 13:30:21;;;;;;;1.65;1.52;;;-8.50;99.90;;;;;;4953528;28;20031;-71
2021/01/23 13:32:47;;;;;;;5.97;2.28;;;-8.50;99.90;;;;;;4955673;29;20162;-74
2021/01/23 13:35:14;;;;;;;3.85;2.75;;;-8.50;99.90;;;;;;4955375;29;20126;-71
2021/01/23 13:37:40;;;;;;;1.58;1.48;;;-8.50;99.90;;;;;;4956929;29;20035;-71
2021/01/23 13:40:06;;;;;;;5.55;2.67;;;-8.50;99.90;;;;;;4956592;29;20112;-71
2021/01/23 13:42:32;;;;;;;3.00;2.05;;;-8.50;99.90;;;;;;4956867;29;20369;-72
2021/01/23 13:44:58;;;;;;;3.78;1.85;;;-8.50;99.90;;;;;;4956571;29;20050;-71
2021/01/23 13:47:24;;;;;;;2.38;1.73;;;-8.50;99.90;;;;;;4956565;28;20035;-70
2021/01/23 13:49:49;;;;;;;3.83;2.38;;;-8.50;99.90;;;;;;4956527;29;20500;-70
2021/01/23 13:52:15;;;;;;;6.70;2.08;;;-8.50;99.90;;;;;;4956624;29;20468;-71
2021/01/23 13:54:41;;;;;;;2.05;1.42;;;-8.60;99.90;;;;;;4956622;29;20058;-70
2021/01/23 13:57:07;;;;;;;1.63;1.52;;;-8.50;99.90;;;;;;4956515;29;20562;-70
2021/01/23 13:59:33;;;;;;;7.25;2.80;;;-8.60;99.90;;;;;;4956397;29;20078;-72
2021/01/23 14:01:58;;;;;;;1.13;1.13;;;-8.50;99.90;;;;;;4956734;28;20062;-71
2021/01/23 14:04:24;;;;;;;7.28;3.10;;;-8.40;99.90;;;;;;4956204;28;20618;-71
2021/01/23 14:06:50;;;;;;;7.00;2.75;;;-8.50;99.90;;;;;;4955742;29;20037;-71
2021/01/23 14:09:16;;;;;;;16.42;2.97;;;-8.50;99.90;;;;;;4955977;29;20379;-72
2021/01/23 14:11:41;;;;;;;3.30;2.15;;;-8.50;99.90;;;;;;4956004;29;20499;-71
2021/01/23 14:14:07;;;;;;;8.35;3.33;;;-8.50;99.90;;;;;;4955701;29;20432;-71
2021/01/23 14:16:33;;;;;;;6.97;2.78;;;-8.50;99.90;;;;;;4956382;29;20027;-71
2021/01/23 14:18:58;;;;;;;6.20;3.05;;;-8.60;99.90;;;;;;4956221;29;20038;-71
2021/01/23 14:21:24;;;;;;;5.50;2.92;;;-8.60;99.90;;;;;;4955929;29;20027;-71
2021/01/23 14:23:50;;;;;;;7.43;2.88;;;-8.50;99.90;;;;;;4955798;29;20043;-71
2021/01/23 14:26:15;;;;;;;7.45;2.22;;;-8.50;99.90;;;;;;4955791;29;20038;-70
2021/01/23 14:28:41;;;;;;;4.95;2.35;;;-8.50;99.90;;;;;;4955728;29;20035;-72
2021/01/23 14:31:07;;;;;;;5.28;2.40;;;-8.50;99.90;;;;;;4955989;29;20033;-71
2021/01/23 14:33:33;;;;;;;5.13;2.67;;;-8.50;99.90;;;;;;4955962;29;20027;-73
2021/01/23 14:36:00;;;;;;;5.55;2.90;;;-8.50;99.90;;;;;;4955609;29;20480;-73
2021/01/23 14:38:25;;;;;;;3.13;1.88;;;-8.50;99.90;;;;;;4955486;29;20039;-72
2021/01/23 14:40:51;;;;;;;6.93;2.80;;;-8.50;99.90;;;;;;4955931;29;20026;-72
2021/01/23 14:43:17;;;;;;;4.65;2.88;;;-8.50;99.90;;;;;;4954968;28;20688;-72
2021/01/23 14:45:47;;;;;;;6.18;2.83;;;-8.50;99.90;;;;;;4955574;29;20073;-71
2021/01/23 14:48:13;;;;;;;;;;;-8.50;99.90;;;;;;4955623;29;20094;-72
2021/01/23 14:50:39;;;;;;;7.57;2.97;;;-8.50;99.90;;;;;;4955631;28;19906;-72
2021/01/23 14:53:04;;;;;;;2.67;2.00;;;-8.50;99.90;;;;;;4955295;29;20031;-72
2021/01/23 14:55:30;;;;;;;7.50;3.50;;;-8.40;99.90;;;;;;4955204;29;20032;-71
2021/01/23 14:57:56;;;;;;;7.03;2.90;;;-8.40;99.90;;;;;;4955219;29;20027;-72
2021/01/23 15:00:22;;;;;;;6.72;2.65;;;-8.40;99.90;;;;;;4955473;29;20373;-72
2021/01/23 15:02:48;;;;;;;6.80;2.55;;;-8.50;99.90;;;;;;4955322;28;20444;-71
2021/01/23 15:05:13;;;;;;;4.20;2.25;;;-8.50;99.90;;;;;;4954997;29;20050;-72
2021/01/23 15:07:40;;;;;;;5.63;3.78;;;-8.50;99.90;;;;;;4955185;28;20039;-70
2021/01/23 15:10:08;;;;;;;8.80;3.50;;;-8.40;99.90;;;;;;4954829;29;20070;-73
2021/01/23 15:12:34;;;;;;;2.60;1.95;;;-8.30;99.90;;;;;;4954960;28;20034;-70
2021/01/23 15:15:00;;;;;;;2.45;1.48;;;-8.30;99.90;;;;;;4954930;29;20051;-70
2021/01/23 15:17:26;;;;;;;5.60;3.20;;;-8.40;99.90;;;;;;4954855;29;20031;-70
2021/01/23 15:19:52;;;;;;;8.38;3.08;;;-8.50;99.90;;;;;;4955065;29;20027;-69
2021/01/23 15:22:17;;;;;;;7.50;3.25;;;-8.50;99.90;;;;;;4954800;29;20042;-69
2021/01/23 15:24:43;;;;;;;3.65;2.03;;;-8.40;99.90;;;;;;4955127;29;20106;-70
2021/01/23 15:27:10;;;;;;;8.18;2.90;;;-8.40;99.90;;;;;;4954600;29;20480;-70
2021/01/23 15:29:36;;;;;;;5.38;2.60;;;-8.50;99.90;;;;;;4954434;29;20618;-69
2021/01/23 15:32:02;;;;;;;3.45;2.33;;;-8.50;99.90;;;;;;4954810;29;20070;-70
2021/01/23 15:34:28;;;;;;;8.20;3.05;;;-8.50;99.90;;;;;;4954530;29;20031;-69
2021/01/23 15:36:53;;;;;;;3.85;2.38;;;-8.50;99.90;;;;;;4954644;29;20034;-73
2021/01/23 15:39:19;;;;;;;4.88;3.10;;;-8.60;99.90;;;;;;4954409;29;20083;-73
2021/01/23 15:41:45;;;;;;;1.55;1.42;;;-8.60;99.90;;;;;;4954539;29;20035;-73
2021/01/23 15:44:11;;;;;;;10.30;3.33;;;-8.20;99.90;;;;;;4954303;29;20042;-75
2021/01/23 15:46:36;;;;;;;3.42;2.38;;;-8.00;99.90;;;;;;4954669;29;20026;-74
2021/01/23 15:49:02;;;;;;;4.75;2.30;;;-8.10;99.90;;;;;;4954564;29;20102;-74
2021/01/23 15:51:28;;;;;;;5.28;2.40;;;-8.20;99.90;;;;;;4954533;29;20031;-73
2021/01/23 15:53:54;;;;;;;7.07;2.65;;;-8.20;99.90;;;;;;4953900;28;20024;-73
2021/01/23 15:56:20;;;;;;;4.25;2.15;;;-8.20;99.90;;;;;;4953973;29;20086;-73
2021/01/23 15:58:46;;;;;;;3.22;1.80;;;-8.30;99.90;;;;;;4954276;29;20045;-77
2021/01/23 16:01:12;;;;;;;6.40;2.38;;;-8.30;99.90;;;;;;4954046;29;20534;-73
2021/01/23 16:03:37;;;;;;;6.05;3.40;;;-7.90;99.90;;;;;;4954180;29;20609;-73
2021/01/23 16:06:03;;;;;;;5.80;3.30;;;-8.00;99.90;;;;;;4954191;29;20023;-75
2021/01/23 16:08:29;;;;;;;8.30;3.05;;;-8.10;99.90;;;;;;4954167;29;20079;-74
2021/01/23 16:10:55;;;;;;;5.55;3.47;;;-8.20;99.90;;;;;;4954439;29;20454;-74
2021/01/23 16:13:20;;;;;;;6.28;2.55;;;-8.20;99.90;;;;;;4953931;29;20567;-74
2021/01/23 16:15:46;;;;;;;6.30;2.72;;;-8.20;99.90;;;;;;4954028;29;20130;-74
2021/01/23 16:18:12;;;;;;;3.50;2.40;;;-8.20;99.90;;;;;;4954003;29;20031;-74
2021/01/23 16:20:38;;;;;;;3.20;2.35;;;-8.30;99.90;;;;;;4954092;28;20058;-72
2021/01/23 16:23:06;;;;;;;2.17;1.95;;;-8.30;99.90;;;;;;4954186;29;20047;-73
2021/01/23 16:25:32;;;;;;;6.82;3.30;;;-8.30;99.90;;;;;;4957702;29;20054;-74
2021/01/23 16:27:58;;;;;;;10.30;3.17;;;-8.30;99.90;;;;;;4953777;29;20035;-72
2021/01/23 16:30:25;;;;;;;5.88;2.40;;;-8.20;99.90;;;;;;4953743;29;20518;-72
2021/01/23 16:32:51;;;;;;;10.43;3.33;;;-6.30;99.90;;;;;;4953942;29;20114;-71
2021/01/23 16:35:17;;;;;;;9.35;2.72;;;-6.30;99.90;;;;;;4953442;28;20023;-71
2021/01/23 16:37:43;;;;;;;6.68;3.08;;;-6.00;99.90;;;;;;4963244;29;20027;-73
2021/01/23 16:40:10;;;;;;;3.72;2.13;;;-6.30;99.90;;;;;;4954076;29;20073;-72
2021/01/23 16:42:36;;;;;;;3.85;2.10;;;-6.90;99.90;;;;;;4959626;29;20035;-73
2021/01/23 16:45:03;;;;;;;6.90;2.38;;;-7.30;99.90;;;;;;4953571;29;20526;-73
2021/01/23 16:47:29;;;;;;;7.85;2.28;;;-7.60;99.90;;;;;;4953611;29;20118;-73
2021/01/23 16:49:54;;;;;;;3.30;2.17;;;-7.80;99.90;;;;;;4953747;29;20562;-73
2021/01/23 16:52:21;;;;;;;5.22;2.60;;;-7.90;99.90;;;;;;4953916;29;20034;-72
2021/01/23 16:54:47;;;;;;;4.78;2.47;;;-7.90;99.90;;;;;;4953638;29;20057;-72
2021/01/23 16:57:13;;;;;;;4.30;2.50;;;-8.00;99.90;;;;;;4953746;29;20475;-72
2021/01/23 16:59:40;;;;;;;7.45;3.30;;;-8.00;99.90;;;;;;4953660;29;20027;-71
2021/01/23 17:02:06;;;;;;;5.03;2.30;;;-8.00;99.90;;;;;;4953711;29;20074;-72
2021/01/23 17:04:32;;;;;;;4.72;2.33;;;-8.10;99.90;;;;;;4953461;29;20561;-70